This is the latest recevied weather packets stored in our database for station/object WA9SDJ-13. If no packets are shown the sender has not sent any weather packets the latest 1 day(s).
| Time | Temp. | Humidity | Pressure | Rain* | Wind** | Luminosity | Snow |
|---|---|---|---|---|---|---|---|
| 1777990502 | 13.89° C | 87% | 1007.2 hPa | 3.05 mm | 1.79 m/s, 299° | 51 W/m² | - |
| 1777990442 | 13.89° C | 87% | 1007 hPa | 3.05 mm | 1.79 m/s, 299° | 53 W/m² | - |
| 1777990383 | 13.89° C | 87% | 1006.8 hPa | 3.05 mm | 1.34 m/s, 314° | 48 W/m² | - |
| 1777990321 | 13.89° C | 87% | 1006.6 hPa | 2.79 mm | 1.79 m/s, 1° | 44 W/m² | - |
| 1777990262 | 13.89° C | 87% | 1006.6 hPa | 2.79 mm | 2.24 m/s, 1° | 41 W/m² | - |
| 1777990202 | 13.89° C | 87% | 1006.6 hPa | 2.79 mm | 1.79 m/s, 16° | 39 W/m² | - |
| 1777990142 | 13.89° C | 87% | 1006.8 hPa | 2.79 mm | 1.79 m/s, 7° | 37 W/m² | - |
| 1777990082 | 14.44° C | 87% | 1006.9 hPa | 2.54 mm | 1.79 m/s, 30° | 33 W/m² | - |
| 1777990022 | 14.44° C | 87% | 1007 hPa | 2.54 mm | 1.79 m/s, 20° | 32 W/m² | - |
| 1777989962 | 14.44° C | 87% | 1007.1 hPa | 2.54 mm | 1.34 m/s, 17° | 28 W/m² | - |
| 1777989903 | 14.44° C | 87% | 1007.3 hPa | 2.54 mm | 0.45 m/s, 17° | 26 W/m² | - |
| 1777989842 | 14.44° C | 87% | 1007.4 hPa | 2.29 mm | 0 m/s | 26 W/m² | - |
| 1777989782 | 13.89° C | 87% | 1007.5 hPa | 2.29 mm | 0 m/s | 26 W/m² | - |
| 1777989721 | 13.89° C | 87% | 1007.7 hPa | 2.29 mm | 0 m/s | 26 W/m² | - |
| 1777989663 | 13.89° C | 87% | 1007.8 hPa | 2.29 mm | 0 m/s | 30 W/m² | - |
| 1777989603 | 13.89° C | 87% | 1007.8 hPa | 2.29 mm | 0 m/s | 30 W/m² | - |
| 1777989542 | 13.89° C | 87% | 1007.8 hPa | 2.03 mm | 0 m/s | 30 W/m² | - |
| 1777989482 | 13.89° C | 87% | 1008 hPa | 2.03 mm | 0.45 m/s, 244° | 28 W/m² | - |
| 1777989422 | 14.44° C | 87% | 1008 hPa | 2.03 mm | 0.89 m/s, 244° | 25 W/m² | - |
| 1777989363 | 13.89° C | 87% | 1007.9 hPa | 1.78 mm | 0.45 m/s, 244° | 21 W/m² | - |
| 1777989303 | 13.89° C | 87% | 1007.8 hPa | 1.78 mm | 0.45 m/s, 244° | 21 W/m² | - |
| 1777989242 | 13.89° C | 87% | 1007.7 hPa | 1.52 mm | 0 m/s | 18 W/m² | - |
| 1777989182 | 13.89° C | 87% | 1007.5 hPa | 1.52 mm | 0 m/s | 12 W/m² | - |
| 1777989122 | 13.89° C | 87% | 1007.5 hPa | 1.27 mm | 0 m/s | 12 W/m² | - |
| 1777989062 | 13.89° C | 87% | 1007.5 hPa | 1.27 mm | 0 m/s | 11 W/m² | - |
* Rain latest hour (hover to see other rain measurements)
** Current wind speed in m/s (hover to see current wind gust speed)